sensor_id;sensor_type;location;lat;lon;timestamp;P1;durP1;ratioP1;P2;durP2;ratioP2
61336;SDS011;47212;41.326;2.104;2023-02-15T00:00:41;11.32;;;8.95;;
61336;SDS011;47212;41.326;2.104;2023-02-15T00:05:51;9.45;;;7.65;;
61336;SDS011;47212;41.326;2.104;2023-02-15T00:11:05;12.40;;;8.63;;
61336;SDS011;47212;41.326;2.104;2023-02-15T00:16:43;11.65;;;8.50;;
61336;SDS011;47212;41.326;2.104;2023-02-15T00:21:51;12.48;;;9.60;;
61336;SDS011;47212;41.326;2.104;2023-02-15T00:26:53;10.27;;;8.05;;
61336;SDS011;47212;41.326;2.104;2023-02-15T00:31:59;10.48;;;8.30;;
61336;SDS011;47212;41.326;2.104;2023-02-15T00:37:02;13.15;;;9.57;;
61336;SDS011;47212;41.326;2.104;2023-02-15T00:42:07;13.18;;;9.25;;
61336;SDS011;47212;41.326;2.104;2023-02-15T00:47:13;14.07;;;10.73;;
61336;SDS011;47212;41.326;2.104;2023-02-15T00:52:18;13.90;;;10.87;;
61336;SDS011;47212;41.326;2.104;2023-02-15T00:57:25;14.30;;;11.82;;
61336;SDS011;47212;41.326;2.104;2023-02-15T01:02:29;15.70;;;10.45;;
61336;SDS011;47212;41.326;2.104;2023-02-15T01:07:33;12.00;;;8.95;;
61336;SDS011;47212;41.326;2.104;2023-02-15T01:12:40;12.02;;;9.40;;
61336;SDS011;47212;41.326;2.104;2023-02-15T01:17:53;12.55;;;9.40;;
61336;SDS011;47212;41.326;2.104;2023-02-15T01:22:58;13.20;;;9.90;;
61336;SDS011;47212;41.326;2.104;2023-02-15T01:28:03;13.32;;;9.70;;
61336;SDS011;47212;41.326;2.104;2023-02-15T01:33:07;13.85;;;9.88;;
61336;SDS011;47212;41.326;2.104;2023-02-15T01:38:23;13.23;;;9.57;;
61336;SDS011;47212;41.326;2.104;2023-02-15T01:43:42;11.88;;;9.50;;
61336;SDS011;47212;41.326;2.104;2023-02-15T01:49:14;12.05;;;9.23;;
61336;SDS011;47212;41.326;2.104;2023-02-15T01:54:22;13.75;;;10.07;;
61336;SDS011;47212;41.326;2.104;2023-02-15T01:59:33;12.88;;;10.15;;
61336;SDS011;47212;41.326;2.104;2023-02-15T02:05:20;12.30;;;9.52;;
61336;SDS011;47212;41.326;2.104;2023-02-15T02:10:24;12.93;;;9.88;;
61336;SDS011;47212;41.326;2.104;2023-02-15T02:15:57;15.15;;;11.75;;
61336;SDS011;47212;41.326;2.104;2023-02-15T02:32:12;12.82;;;10.27;;
61336;SDS011;47212;41.326;2.104;2023-02-15T02:38:19;11.73;;;10.05;;
61336;SDS011;47212;41.326;2.104;2023-02-15T02:49:03;12.20;;;9.80;;
61336;SDS011;47212;41.326;2.104;2023-02-15T02:54:26;11.73;;;9.63;;
61336;SDS011;47212;41.326;2.104;2023-02-15T02:59:33;12.45;;;10.27;;
61336;SDS011;47212;41.326;2.104;2023-02-15T03:04:49;11.30;;;9.32;;
61336;SDS011;47212;41.326;2.104;2023-02-15T03:10:26;11.45;;;9.25;;
61336;SDS011;47212;41.326;2.104;2023-02-15T03:15:40;13.57;;;11.02;;
61336;SDS011;47212;41.326;2.104;2023-02-15T03:21:21;12.43;;;9.90;;
61336;SDS011;47212;41.326;2.104;2023-02-15T03:26:29;13.30;;;9.90;;
61336;SDS011;47212;41.326;2.104;2023-02-15T03:31:40;12.55;;;10.20;;
61336;SDS011;47212;41.326;2.104;2023-02-15T03:36:59;13.73;;;10.90;;
61336;SDS011;47212;41.326;2.104;2023-02-15T03:47:34;14.30;;;10.18;;
61336;SDS011;47212;41.326;2.104;2023-02-15T03:52:39;16.35;;;12.43;;
61336;SDS011;47212;41.326;2.104;2023-02-15T03:57:50;14.15;;;11.27;;
61336;SDS011;47212;41.326;2.104;2023-02-15T04:03:40;16.40;;;11.38;;
61336;SDS011;47212;41.326;2.104;2023-02-15T04:09:01;16.17;;;10.50;;
61336;SDS011;47212;41.326;2.104;2023-02-15T04:14:29;14.20;;;10.52;;
61336;SDS011;47212;41.326;2.104;2023-02-15T04:19:54;12.90;;;9.30;;
61336;SDS011;47212;41.326;2.104;2023-02-15T04:25:20;9.85;;;8.40;;
61336;SDS011;47212;41.326;2.104;2023-02-15T04:30:27;14.10;;;10.13;;
61336;SDS011;47212;41.326;2.104;2023-02-15T04:35:30;11.93;;;9.73;;
61336;SDS011;47212;41.326;2.104;2023-02-15T04:40:37;11.38;;;8.77;;
61336;SDS011;47212;41.326;2.104;2023-02-15T04:45:54;16.33;;;9.55;;
61336;SDS011;47212;41.326;2.104;2023-02-15T04:51:07;15.07;;;10.38;;
61336;SDS011;47212;41.326;2.104;2023-02-15T04:56:12;15.48;;;11.77;;
61336;SDS011;47212;41.326;2.104;2023-02-15T05:08:06;13.88;;;9.93;;
61336;SDS011;47212;41.326;2.104;2023-02-15T05:13:08;14.60;;;10.45;;
61336;SDS011;47212;41.326;2.104;2023-02-15T05:18:10;16.40;;;10.55;;
61336;SDS011;47212;41.326;2.104;2023-02-15T05:23:12;13.60;;;9.35;;
61336;SDS011;47212;41.326;2.104;2023-02-15T05:28:14;12.02;;;8.88;;
61336;SDS011;47212;41.326;2.104;2023-02-15T05:33:22;13.02;;;9.40;;
61336;SDS011;47212;41.326;2.104;2023-02-15T05:38:25;11.75;;;9.50;;
61336;SDS011;47212;41.326;2.104;2023-02-15T05:43:27;13.98;;;10.18;;
61336;SDS011;47212;41.326;2.104;2023-02-15T05:48:29;11.70;;;9.13;;
61336;SDS011;47212;41.326;2.104;2023-02-15T05:53:32;18.90;;;11.63;;
61336;SDS011;47212;41.326;2.104;2023-02-15T05:58:39;14.65;;;11.13;;
61336;SDS011;47212;41.326;2.104;2023-02-15T06:03:44;13.63;;;10.32;;
61336;SDS011;47212;41.326;2.104;2023-02-15T06:08:47;12.15;;;9.23;;
61336;SDS011;47212;41.326;2.104;2023-02-15T06:13:50;16.48;;;11.45;;
61336;SDS011;47212;41.326;2.104;2023-02-15T06:18:52;16.40;;;10.18;;
61336;SDS011;47212;41.326;2.104;2023-02-15T06:23:57;13.57;;;10.70;;
61336;SDS011;47212;41.326;2.104;2023-02-15T06:29:05;15.77;;;10.32;;
61336;SDS011;47212;41.326;2.104;2023-02-15T06:34:07;13.80;;;10.13;;
61336;SDS011;47212;41.326;2.104;2023-02-15T06:39:16;12.90;;;10.10;;
61336;SDS011;47212;41.326;2.104;2023-02-15T06:44:19;14.57;;;10.52;;
61336;SDS011;47212;41.326;2.104;2023-02-15T06:49:21;16.50;;;9.30;;
61336;SDS011;47212;41.326;2.104;2023-02-15T06:54:24;12.98;;;9.57;;
61336;SDS011;47212;41.326;2.104;2023-02-15T06:59:26;16.02;;;9.48;;
61336;SDS011;47212;41.326;2.104;2023-02-15T07:04:29;14.13;;;10.90;;
61336;SDS011;47212;41.326;2.104;2023-02-15T07:09:33;14.77;;;10.07;;
61336;SDS011;47212;41.326;2.104;2023-02-15T07:14:44;12.82;;;9.85;;
61336;SDS011;47212;41.326;2.104;2023-02-15T07:19:46;17.95;;;10.57;;
61336;SDS011;47212;41.326;2.104;2023-02-15T07:24:52;12.80;;;9.75;;
61336;SDS011;47212;41.326;2.104;2023-02-15T07:29:56;14.45;;;10.18;;
61336;SDS011;47212;41.326;2.104;2023-02-15T07:34:58;16.20;;;10.32;;
61336;SDS011;47212;41.326;2.104;2023-02-15T07:40:01;15.10;;;9.88;;
61336;SDS011;47212;41.326;2.104;2023-02-15T07:45:05;14.40;;;11.57;;
61336;SDS011;47212;41.326;2.104;2023-02-15T07:50:09;17.23;;;11.45;;
61336;SDS011;47212;41.326;2.104;2023-02-15T07:55:11;16.63;;;10.43;;
61336;SDS011;47212;41.326;2.104;2023-02-15T08:00:18;12.38;;;9.82;;
61336;SDS011;47212;41.326;2.104;2023-02-15T08:05:24;12.75;;;9.93;;
61336;SDS011;47212;41.326;2.104;2023-02-15T08:10:30;16.05;;;9.98;;
61336;SDS011;47212;41.326;2.104;2023-02-15T08:15:52;11.82;;;9.65;;
61336;SDS011;47212;41.326;2.104;2023-02-15T08:20:54;15.48;;;10.63;;
61336;SDS011;47212;41.326;2.104;2023-02-15T08:25:59;12.00;;;9.15;;
61336;SDS011;47212;41.326;2.104;2023-02-15T08:31:06;19.48;;;11.38;;
61336;SDS011;47212;41.326;2.104;2023-02-15T08:36:11;16.15;;;11.18;;
61336;SDS011;47212;41.326;2.104;2023-02-15T08:41:19;14.80;;;10.80;;
61336;SDS011;47212;41.326;2.104;2023-02-15T08:46:24;13.07;;;11.05;;
61336;SDS011;47212;41.326;2.104;2023-02-15T08:51:30;13.27;;;10.27;;
61336;SDS011;47212;41.326;2.104;2023-02-15T08:56:35;15.32;;;11.40;;
61336;SDS011;47212;41.326;2.104;2023-02-15T09:01:39;14.88;;;11.20;;
61336;SDS011;47212;41.326;2.104;2023-02-15T09:06:42;13.60;;;10.05;;
61336;SDS011;47212;41.326;2.104;2023-02-15T09:11:50;18.05;;;11.50;;
61336;SDS011;47212;41.326;2.104;2023-02-15T09:16:59;11.18;;;8.90;;
61336;SDS011;47212;41.326;2.104;2023-02-15T09:22:03;14.40;;;9.90;;
61336;SDS011;47212;41.326;2.104;2023-02-15T09:27:08;14.25;;;10.10;;
61336;SDS011;47212;41.326;2.104;2023-02-15T09:32:16;11.35;;;9.45;;
61336;SDS011;47212;41.326;2.104;2023-02-15T09:37:19;12.38;;;8.85;;
61336;SDS011;47212;41.326;2.104;2023-02-15T10:31:22;13.68;;;8.30;;
61336;SDS011;47212;41.326;2.104;2023-02-15T10:47:22;6.60;;;5.50;;
61336;SDS011;47212;41.326;2.104;2023-02-15T11:09:02;4.05;;;2.35;;
61336;SDS011;47212;41.326;2.104;2023-02-15T11:25:52;3.97;;;3.15;;
61336;SDS011;47212;41.326;2.104;2023-02-15T11:30:43;3.17;;;2.42;;
61336;SDS011;47212;41.326;2.104;2023-02-15T11:35:51;4.43;;;2.85;;
61336;SDS011;47212;41.326;2.104;2023-02-15T11:41:11;3.70;;;2.53;;
61336;SDS011;47212;41.326;2.104;2023-02-15T11:46:17;4.38;;;2.40;;
61336;SDS011;47212;41.326;2.104;2023-02-15T11:51:21;6.25;;;2.63;;
61336;SDS011;47212;41.326;2.104;2023-02-15T11:56:26;4.43;;;2.33;;
61336;SDS011;47212;41.326;2.104;2023-02-15T12:06:35;3.63;;;2.47;;
61336;SDS011;47212;41.326;2.104;2023-02-15T12:11:43;5.32;;;3.22;;
61336;SDS011;47212;41.326;2.104;2023-02-15T12:21:49;4.97;;;2.83;;
61336;SDS011;47212;41.326;2.104;2023-02-15T12:27:18;4.68;;;2.60;;
61336;SDS011;47212;41.326;2.104;2023-02-15T12:32:25;3.47;;;2.28;;
61336;SDS011;47212;41.326;2.104;2023-02-15T12:37:30;9.23;;;2.88;;
61336;SDS011;47212;41.326;2.104;2023-02-15T12:42:41;2.83;;;2.30;;
61336;SDS011;47212;41.326;2.104;2023-02-15T12:47:45;2.35;;;2.13;;
61336;SDS011;47212;41.326;2.104;2023-02-15T12:58:04;3.30;;;2.22;;
61336;SDS011;47212;41.326;2.104;2023-02-15T13:03:21;2.75;;;2.10;;
61336;SDS011;47212;41.326;2.104;2023-02-15T13:08:29;2.78;;;1.90;;
61336;SDS011;47212;41.326;2.104;2023-02-15T13:13:35;3.90;;;2.10;;
61336;SDS011;47212;41.326;2.104;2023-02-15T13:18:49;2.95;;;2.30;;
61336;SDS011;47212;41.326;2.104;2023-02-15T13:24:39;3.05;;;2.17;;
61336;SDS011;47212;41.326;2.104;2023-02-15T13:29:30;3.08;;;2.10;;
61336;SDS011;47212;41.326;2.104;2023-02-15T13:34:38;2.57;;;1.97;;
61336;SDS011;47212;41.326;2.104;2023-02-15T13:50:31;4.28;;;2.10;;
61336;SDS011;47212;41.326;2.104;2023-02-15T13:55:52;4.43;;;3.55;;
61336;SDS011;47212;41.326;2.104;2023-02-15T14:01:05;4.10;;;2.35;;
61336;SDS011;47212;41.326;2.104;2023-02-15T14:06:24;3.28;;;2.05;;
61336;SDS011;47212;41.326;2.104;2023-02-15T14:17:00;4.10;;;3.42;;
61336;SDS011;47212;41.326;2.104;2023-02-15T14:22:17;3.72;;;2.40;;
61336;SDS011;47212;41.326;2.104;2023-02-15T14:32:57;3.58;;;2.30;;
61336;SDS011;47212;41.326;2.104;2023-02-15T14:43:14;4.25;;;2.58;;
61336;SDS011;47212;41.326;2.104;2023-02-15T14:53:38;6.28;;;2.80;;
61336;SDS011;47212;41.326;2.104;2023-02-15T15:03:57;4.25;;;2.92;;
61336;SDS011;47212;41.326;2.104;2023-02-15T15:24:54;7.63;;;2.50;;
61336;SDS011;47212;41.326;2.104;2023-02-15T15:29:56;3.97;;;2.30;;
61336;SDS011;47212;41.326;2.104;2023-02-15T15:35:03;3.72;;;2.75;;
61336;SDS011;47212;41.326;2.104;2023-02-15T15:40:23;5.40;;;2.63;;
61336;SDS011;47212;41.326;2.104;2023-02-15T15:51:27;3.97;;;2.63;;
61336;SDS011;47212;41.326;2.104;2023-02-15T15:56:35;4.20;;;2.55;;
61336;SDS011;47212;41.326;2.104;2023-02-15T16:01:42;5.53;;;2.38;;
61336;SDS011;47212;41.326;2.104;2023-02-15T16:06:46;6.53;;;2.38;;
61336;SDS011;47212;41.326;2.104;2023-02-15T16:12:01;3.28;;;2.30;;
61336;SDS011;47212;41.326;2.104;2023-02-15T16:17:06;3.13;;;2.20;;
61336;SDS011;47212;41.326;2.104;2023-02-15T16:22:20;2.97;;;2.10;;
61336;SDS011;47212;41.326;2.104;2023-02-15T16:32:57;3.78;;;2.10;;
61336;SDS011;47212;41.326;2.104;2023-02-15T16:38:10;2.88;;;2.10;;
61336;SDS011;47212;41.326;2.104;2023-02-15T16:43:14;3.45;;;2.33;;
61336;SDS011;47212;41.326;2.104;2023-02-15T16:48:27;4.15;;;2.30;;
61336;SDS011;47212;41.326;2.104;2023-02-15T16:53:35;4.03;;;2.40;;
61336;SDS011;47212;41.326;2.104;2023-02-15T16:58:44;2.92;;;2.17;;
61336;SDS011;47212;41.326;2.104;2023-02-15T17:03:51;3.30;;;2.05;;
61336;SDS011;47212;41.326;2.104;2023-02-15T17:09:14;3.47;;;2.30;;
61336;SDS011;47212;41.326;2.104;2023-02-15T17:19:33;2.80;;;2.10;;
61336;SDS011;47212;41.326;2.104;2023-02-15T17:25:00;3.40;;;2.30;;
61336;SDS011;47212;41.326;2.104;2023-02-15T17:30:14;3.00;;;2.08;;
61336;SDS011;47212;41.326;2.104;2023-02-15T17:35:24;6.05;;;2.40;;
61336;SDS011;47212;41.326;2.104;2023-02-15T17:40:30;4.15;;;2.28;;
61336;SDS011;47212;41.326;2.104;2023-02-15T17:45:44;3.00;;;2.15;;
61336;SDS011;47212;41.326;2.104;2023-02-15T17:50:49;3.83;;;2.88;;
61336;SDS011;47212;41.326;2.104;2023-02-15T17:55:52;6.20;;;2.75;;
61336;SDS011;47212;41.326;2.104;2023-02-15T18:00:54;3.63;;;2.40;;
61336;SDS011;47212;41.326;2.104;2023-02-15T18:06:18;5.45;;;2.70;;
61336;SDS011;47212;41.326;2.104;2023-02-15T18:11:39;5.43;;;2.80;;
61336;SDS011;47212;41.326;2.104;2023-02-15T18:21:49;2.78;;;2.10;;
61336;SDS011;47212;41.326;2.104;2023-02-15T18:26:59;3.90;;;2.70;;
61336;SDS011;47212;41.326;2.104;2023-02-15T18:32:02;5.07;;;2.83;;
61336;SDS011;47212;41.326;2.104;2023-02-15T18:37:11;5.18;;;3.00;;
61336;SDS011;47212;41.326;2.104;2023-02-15T18:42:20;4.00;;;3.03;;
61336;SDS011;47212;41.326;2.104;2023-02-15T18:47:31;3.80;;;2.67;;
61336;SDS011;47212;41.326;2.104;2023-02-15T18:52:35;6.15;;;3.45;;
61336;SDS011;47212;41.326;2.104;2023-02-15T18:57:39;5.43;;;3.17;;
61336;SDS011;47212;41.326;2.104;2023-02-15T19:02:45;4.57;;;3.22;;
61336;SDS011;47212;41.326;2.104;2023-02-15T19:07:49;7.57;;;3.13;;
61336;SDS011;47212;41.326;2.104;2023-02-15T19:12:53;7.32;;;3.17;;
61336;SDS011;47212;41.326;2.104;2023-02-15T19:17:59;5.45;;;2.97;;
61336;SDS011;47212;41.326;2.104;2023-02-15T19:23:05;5.05;;;3.38;;
61336;SDS011;47212;41.326;2.104;2023-02-15T19:28:19;5.00;;;3.38;;
61336;SDS011;47212;41.326;2.104;2023-02-15T19:33:25;5.22;;;3.40;;
61336;SDS011;47212;41.326;2.104;2023-02-15T19:38:34;5.10;;;3.22;;
61336;SDS011;47212;41.326;2.104;2023-02-15T19:43:37;5.70;;;3.28;;
61336;SDS011;47212;41.326;2.104;2023-02-15T19:48:39;4.78;;;3.80;;
61336;SDS011;47212;41.326;2.104;2023-02-15T19:53:47;5.32;;;3.58;;
61336;SDS011;47212;41.326;2.104;2023-02-15T19:58:52;4.53;;;3.47;;
61336;SDS011;47212;41.326;2.104;2023-02-15T20:03:58;7.00;;;4.22;;
61336;SDS011;47212;41.326;2.104;2023-02-15T20:09:00;5.13;;;4.00;;
61336;SDS011;47212;41.326;2.104;2023-02-15T20:14:08;5.32;;;3.97;;
61336;SDS011;47212;41.326;2.104;2023-02-15T20:19:14;7.68;;;4.68;;
61336;SDS011;47212;41.326;2.104;2023-02-15T20:24:18;6.72;;;5.00;;
61336;SDS011;47212;41.326;2.104;2023-02-15T20:29:22;7.47;;;4.40;;
61336;SDS011;47212;41.326;2.104;2023-02-15T20:34:24;6.90;;;5.13;;
61336;SDS011;47212;41.326;2.104;2023-02-15T20:39:26;7.07;;;4.55;;
61336;SDS011;47212;41.326;2.104;2023-02-15T20:44:30;5.07;;;3.92;;
61336;SDS011;47212;41.326;2.104;2023-02-15T20:49:35;9.95;;;5.43;;
61336;SDS011;47212;41.326;2.104;2023-02-15T20:54:39;9.55;;;5.40;;
61336;SDS011;47212;41.326;2.104;2023-02-15T20:59:41;7.38;;;5.50;;
61336;SDS011;47212;41.326;2.104;2023-02-15T21:04:43;8.20;;;6.22;;
61336;SDS011;47212;41.326;2.104;2023-02-15T21:09:49;11.85;;;7.88;;
61336;SDS011;47212;41.326;2.104;2023-02-15T21:14:53;14.75;;;8.85;;
61336;SDS011;47212;41.326;2.104;2023-02-15T21:19:55;11.90;;;8.40;;
61336;SDS011;47212;41.326;2.104;2023-02-15T21:24:57;12.00;;;7.68;;
61336;SDS011;47212;41.326;2.104;2023-02-15T21:30:16;10.40;;;7.40;;
61336;SDS011;47212;41.326;2.104;2023-02-15T21:35:20;11.02;;;7.65;;
61336;SDS011;47212;41.326;2.104;2023-02-15T21:40:26;12.10;;;6.90;;
61336;SDS011;47212;41.326;2.104;2023-02-15T21:45:34;12.27;;;7.97;;
61336;SDS011;47212;41.326;2.104;2023-02-15T21:50:58;8.75;;;6.38;;
61336;SDS011;47212;41.326;2.104;2023-02-15T21:56:20;10.32;;;6.70;;
61336;SDS011;47212;41.326;2.104;2023-02-15T22:01:25;9.70;;;6.03;;
61336;SDS011;47212;41.326;2.104;2023-02-15T22:06:28;10.10;;;7.22;;
61336;SDS011;47212;41.326;2.104;2023-02-15T22:11:30;9.02;;;6.28;;
61336;SDS011;47212;41.326;2.104;2023-02-15T22:16:33;11.15;;;7.22;;
61336;SDS011;47212;41.326;2.104;2023-02-15T22:26:37;11.60;;;7.33;;
61336;SDS011;47212;41.326;2.104;2023-02-15T22:31:39;11.73;;;8.60;;
61336;SDS011;47212;41.326;2.104;2023-02-15T22:36:41;11.30;;;7.95;;
61336;SDS011;47212;41.326;2.104;2023-02-15T22:41:44;11.32;;;8.18;;
61336;SDS011;47212;41.326;2.104;2023-02-15T22:46:46;10.23;;;7.05;;
61336;SDS011;47212;41.326;2.104;2023-02-15T22:51:48;13.40;;;8.20;;
61336;SDS011;47212;41.326;2.104;2023-02-15T22:56:56;10.93;;;7.43;;
61336;SDS011;47212;41.326;2.104;2023-02-15T23:01:59;11.82;;;8.20;;
61336;SDS011;47212;41.326;2.104;2023-02-15T23:07:07;13.43;;;7.72;;
61336;SDS011;47212;41.326;2.104;2023-02-15T23:17:24;13.20;;;9.23;;
61336;SDS011;47212;41.326;2.104;2023-02-15T23:22:26;10.95;;;7.97;;
61336;SDS011;47212;41.326;2.104;2023-02-15T23:27:28;14.48;;;8.98;;
61336;SDS011;47212;41.326;2.104;2023-02-15T23:32:50;21.77;;;15.15;;
61336;SDS011;47212;41.326;2.104;2023-02-15T23:37:54;13.13;;;9.98;;
61336;SDS011;47212;41.326;2.104;2023-02-15T23:42:56;18.33;;;9.18;;
61336;SDS011;47212;41.326;2.104;2023-02-15T23:47:58;13.32;;;8.73;;
61336;SDS011;47212;41.326;2.104;2023-02-15T23:53:22;12.45;;;9.20;;
61336;SDS011;47212;41.326;2.104;2023-02-15T23:58:26;13.70;;;8.43;;
